sensor_id;sensor_type;location;lat;lon;timestamp;pressure;altitude;pressure_sealevel;temperature;humidity
70971;BME280;58632;51.718;19.446;2023-09-19T00:00:59;98866.39;;;17.61;100.00
70971;BME280;58632;51.718;19.446;2023-09-19T00:03:38;98866.23;;;17.59;100.00
70971;BME280;58632;51.718;19.446;2023-09-19T00:06:04;98865.52;;;17.57;100.00
70971;BME280;58632;51.718;19.446;2023-09-19T00:08:32;98868.60;;;17.60;100.00
70971;BME280;58632;51.718;19.446;2023-09-19T00:10:58;98866.87;;;17.61;100.00
70971;BME280;58632;51.718;19.446;2023-09-19T00:13:29;98864.10;;;17.63;100.00
70971;BME280;58632;51.718;19.446;2023-09-19T00:15:56;98861.98;;;17.68;100.00
70971;BME280;58632;51.718;19.446;2023-09-19T00:18:24;98858.52;;;17.75;100.00
70971;BME280;58632;51.718;19.446;2023-09-19T00:20:57;98859.19;;;17.82;100.00
70971;BME280;58632;51.718;19.446;2023-09-19T00:23:25;98857.77;;;17.86;100.00
70971;BME280;58632;51.718;19.446;2023-09-19T00:25:53;98858.09;;;17.91;100.00
70971;BME280;58632;51.718;19.446;2023-09-19T00:28:22;98856.74;;;17.94;100.00
70971;BME280;58632;51.718;19.446;2023-09-19T00:30:48;98855.88;;;17.96;100.00
70971;BME280;58632;51.718;19.446;2023-09-19T00:33:16;98855.18;;;18.01;100.00
70971;BME280;58632;51.718;19.446;2023-09-19T00:35:48;98851.15;;;18.05;100.00
70971;BME280;58632;51.718;19.446;2023-09-19T00:38:13;98854.30;;;18.08;100.00
70971;BME280;58632;51.718;19.446;2023-09-19T00:40:43;98853.84;;;18.10;100.00
70971;BME280;58632;51.718;19.446;2023-09-19T00:43:09;98852.33;;;18.09;100.00
70971;BME280;58632;51.718;19.446;2023-09-19T00:45:37;98844.59;;;18.08;100.00
70971;BME280;58632;51.718;19.446;2023-09-19T00:48:07;98837.30;;;18.07;100.00
70971;BME280;58632;51.718;19.446;2023-09-19T00:50:34;98833.42;;;18.08;100.00
70971;BME280;58632;51.718;19.446;2023-09-19T00:53:00;98836.10;;;18.10;100.00
70971;BME280;58632;51.718;19.446;2023-09-19T00:55:26;98838.95;;;18.11;100.00
70971;BME280;58632;51.718;19.446;2023-09-19T00:57:53;98830.41;;;18.14;100.00
70971;BME280;58632;51.718;19.446;2023-09-19T01:00:20;98833.81;;;18.18;100.00
70971;BME280;58632;51.718;19.446;2023-09-19T01:02:46;98831.04;;;18.23;100.00
70971;BME280;58632;51.718;19.446;2023-09-19T01:05:12;98829.38;;;18.27;100.00
70971;BME280;58632;51.718;19.446;2023-09-19T01:07:38;98826.69;;;18.31;100.00
70971;BME280;58632;51.718;19.446;2023-09-19T01:10:06;98824.38;;;18.33;100.00
70971;BME280;58632;51.718;19.446;2023-09-19T01:15:06;98817.90;;;18.32;100.00
70971;BME280;58632;51.718;19.446;2023-09-19T01:17:46;98816.46;;;18.33;100.00
70971;BME280;58632;51.718;19.446;2023-09-19T01:30:42;98807.68;;;18.34;100.00
70971;BME280;58632;51.718;19.446;2023-09-19T01:33:08;98811.95;;;18.35;100.00
70971;BME280;58632;51.718;19.446;2023-09-19T01:35:38;98809.73;;;18.36;100.00
70971;BME280;58632;51.718;19.446;2023-09-19T01:38:05;98804.50;;;18.37;100.00
70971;BME280;58632;51.718;19.446;2023-09-19T01:40:32;98802.20;;;18.41;100.00
70971;BME280;58632;51.718;19.446;2023-09-19T01:43:06;98799.58;;;18.47;100.00
70971;BME280;58632;51.718;19.446;2023-09-19T01:45:46;98804.16;;;18.49;100.00
70971;BME280;58632;51.718;19.446;2023-09-19T01:50:58;98802.64;;;18.57;100.00
70971;BME280;58632;51.718;19.446;2023-09-19T01:53:33;98805.58;;;18.60;100.00
70971;BME280;58632;51.718;19.446;2023-09-19T01:56:00;98800.89;;;18.60;100.00
70971;BME280;58632;51.718;19.446;2023-09-19T01:58:29;98802.80;;;18.60;100.00
70971;BME280;58632;51.718;19.446;2023-09-19T02:00:58;98805.09;;;18.59;100.00
70971;BME280;58632;51.718;19.446;2023-09-19T02:03:25;98805.42;;;18.56;100.00
70971;BME280;58632;51.718;19.446;2023-09-19T02:05:52;98801.23;;;18.54;100.00
70971;BME280;58632;51.718;19.446;2023-09-19T02:08:19;98796.95;;;18.52;100.00
70971;BME280;58632;51.718;19.446;2023-09-19T02:10:45;98790.63;;;18.50;100.00
70971;BME280;58632;51.718;19.446;2023-09-19T02:13:15;98793.95;;;18.45;100.00
70971;BME280;58632;51.718;19.446;2023-09-19T02:15:42;98787.08;;;18.40;100.00
70971;BME280;58632;51.718;19.446;2023-09-19T02:18:09;98784.88;;;18.33;100.00
70971;BME280;58632;51.718;19.446;2023-09-19T02:20:34;98787.17;;;18.27;100.00
70971;BME280;58632;51.718;19.446;2023-09-19T02:23:00;98786.55;;;18.21;100.00
70971;BME280;58632;51.718;19.446;2023-09-19T02:25:26;98782.77;;;18.16;100.00
70971;BME280;58632;51.718;19.446;2023-09-19T02:27:52;98781.97;;;18.12;100.00
70971;BME280;58632;51.718;19.446;2023-09-19T02:30:19;98776.52;;;18.08;100.00
70971;BME280;58632;51.718;19.446;2023-09-19T02:32:48;98770.89;;;18.05;100.00
70971;BME280;58632;51.718;19.446;2023-09-19T02:35:14;98770.50;;;18.00;100.00
70971;BME280;58632;51.718;19.446;2023-09-19T02:37:45;98773.04;;;17.97;100.00
70971;BME280;58632;51.718;19.446;2023-09-19T02:40:10;98778.17;;;17.95;100.00
70971;BME280;58632;51.718;19.446;2023-09-19T02:42:44;98780.16;;;17.94;100.00
70971;BME280;58632;51.718;19.446;2023-09-19T02:45:14;98776.75;;;17.95;100.00
70971;BME280;58632;51.718;19.446;2023-09-19T02:47:42;98777.46;;;17.94;100.00
70971;BME280;58632;51.718;19.446;2023-09-19T02:50:08;98777.31;;;17.92;100.00
70971;BME280;58632;51.718;19.446;2023-09-19T02:52:36;98782.92;;;17.89;100.00
70971;BME280;58632;51.718;19.446;2023-09-19T02:55:02;98781.58;;;17.83;100.00
70971;BME280;58632;51.718;19.446;2023-09-19T02:57:29;98782.17;;;17.75;100.00
70971;BME280;58632;51.718;19.446;2023-09-19T02:59:58;98783.11;;;17.73;100.00
70971;BME280;58632;51.718;19.446;2023-09-19T03:02:25;98785.09;;;17.65;100.00
70971;BME280;58632;51.718;19.446;2023-09-19T03:04:53;98781.20;;;17.61;100.00
70971;BME280;58632;51.718;19.446;2023-09-19T03:07:18;98775.83;;;17.62;100.00
70971;BME280;58632;51.718;19.446;2023-09-19T03:09:44;98773.30;;;17.57;100.00
70971;BME280;58632;51.718;19.446;2023-09-19T03:12:10;98769.02;;;17.52;100.00
70971;BME280;58632;51.718;19.446;2023-09-19T03:14:35;98769.34;;;17.53;100.00
70971;BME280;58632;51.718;19.446;2023-09-19T03:17:01;98771.64;;;17.56;100.00
70971;BME280;58632;51.718;19.446;2023-09-19T03:19:30;98771.09;;;17.59;100.00
70971;BME280;58632;51.718;19.446;2023-09-19T03:21:55;98778.92;;;17.61;100.00
70971;BME280;58632;51.718;19.446;2023-09-19T03:24:23;98776.70;;;17.62;100.00
70971;BME280;58632;51.718;19.446;2023-09-19T03:26:48;98774.27;;;17.62;100.00
70971;BME280;58632;51.718;19.446;2023-09-19T03:29:14;98769.03;;;17.56;100.00
70971;BME280;58632;51.718;19.446;2023-09-19T03:31:40;98762.23;;;17.53;100.00
70971;BME280;58632;51.718;19.446;2023-09-19T03:34:08;98758.04;;;17.52;100.00
70971;BME280;58632;51.718;19.446;2023-09-19T03:36:34;98756.52;;;17.52;100.00
70971;BME280;58632;51.718;19.446;2023-09-19T03:39:00;98750.38;;;17.53;100.00
70971;BME280;58632;51.718;19.446;2023-09-19T03:41:25;98751.87;;;17.54;100.00
70971;BME280;58632;51.718;19.446;2023-09-19T03:43:53;98749.66;;;17.56;100.00
70971;BME280;58632;51.718;19.446;2023-09-19T03:46:21;98745.30;;;17.57;100.00
70971;BME280;58632;51.718;19.446;2023-09-19T03:48:46;98746.42;;;17.60;100.00
70971;BME280;58632;51.718;19.446;2023-09-19T03:51:14;98745.08;;;17.63;100.00
70971;BME280;58632;51.718;19.446;2023-09-19T03:53:39;98743.73;;;17.63;100.00
70971;BME280;58632;51.718;19.446;2023-09-19T03:56:05;98747.44;;;17.61;100.00
70971;BME280;58632;51.718;19.446;2023-09-19T03:58:30;98742.22;;;17.60;100.00
70971;BME280;58632;51.718;19.446;2023-09-19T04:00:56;98739.52;;;17.58;100.00
70971;BME280;58632;51.718;19.446;2023-09-19T04:03:21;98735.27;;;17.59;100.00
70971;BME280;58632;51.718;19.446;2023-09-19T04:05:47;98738.59;;;17.60;100.00
70971;BME280;58632;51.718;19.446;2023-09-19T04:08:13;98742.38;;;17.62;100.00
70971;BME280;58632;51.718;19.446;2023-09-19T04:10:41;98741.35;;;17.64;100.00
70971;BME280;58632;51.718;19.446;2023-09-19T04:13:07;98746.98;;;17.67;100.00
70971;BME280;58632;51.718;19.446;2023-09-19T04:15:32;98751.33;;;17.66;100.00
70971;BME280;58632;51.718;19.446;2023-09-19T04:17:58;98753.23;;;17.66;100.00
70971;BME280;58632;51.718;19.446;2023-09-19T04:20:23;98749.11;;;17.65;100.00
70971;BME280;58632;51.718;19.446;2023-09-19T04:22:49;98751.96;;;17.65;100.00
70971;BME280;58632;51.718;19.446;2023-09-19T04:25:15;98747.05;;;17.66;100.00
70971;BME280;58632;51.718;19.446;2023-09-19T04:27:40;98747.54;;;17.65;100.00
70971;BME280;58632;51.718;19.446;2023-09-19T04:30:09;98747.77;;;17.62;100.00
70971;BME280;58632;51.718;19.446;2023-09-19T04:32:40;98749.80;;;17.61;100.00
70971;BME280;58632;51.718;19.446;2023-09-19T04:35:07;98750.92;;;17.62;100.00
70971;BME280;58632;51.718;19.446;2023-09-19T04:37:35;98750.86;;;17.64;100.00
70971;BME280;58632;51.718;19.446;2023-09-19T04:40:03;98754.73;;;17.68;100.00
70971;BME280;58632;51.718;19.446;2023-09-19T04:42:31;98756.23;;;17.74;100.00
70971;BME280;58632;51.718;19.446;2023-09-19T04:44:56;98761.77;;;17.80;100.00
70971;BME280;58632;51.718;19.446;2023-09-19T04:47:22;98761.09;;;17.86;100.00
70971;BME280;58632;51.718;19.446;2023-09-19T04:49:47;98763.61;;;17.94;100.00
70971;BME280;58632;51.718;19.446;2023-09-19T04:52:13;98762.59;;;18.02;100.00
70971;BME280;58632;51.718;19.446;2023-09-19T04:54:41;98763.61;;;18.09;100.00
70971;BME280;58632;51.718;19.446;2023-09-19T04:57:06;98765.11;;;18.15;100.00
70971;BME280;58632;51.718;19.446;2023-09-19T04:59:32;98768.11;;;18.17;100.00
70971;BME280;58632;51.718;19.446;2023-09-19T05:01:58;98767.71;;;18.19;100.00
70971;BME280;58632;51.718;19.446;2023-09-19T05:04:25;98771.34;;;18.20;100.00
70971;BME280;58632;51.718;19.446;2023-09-19T05:06:51;98779.44;;;18.22;100.00
70971;BME280;58632;51.718;19.446;2023-09-19T05:09:17;98775.08;;;18.21;100.00
70971;BME280;58632;51.718;19.446;2023-09-19T05:11:45;98778.23;;;18.25;100.00
70971;BME280;58632;51.718;19.446;2023-09-19T05:14:11;98781.71;;;18.29;100.00
70971;BME280;58632;51.718;19.446;2023-09-19T05:16:37;98787.80;;;18.33;100.00
70971;BME280;58632;51.718;19.446;2023-09-19T05:19:02;98789.55;;;18.34;100.00
70971;BME280;58632;51.718;19.446;2023-09-19T05:21:27;98787.48;;;18.37;100.00
70971;BME280;58632;51.718;19.446;2023-09-19T05:23:55;98785.02;;;18.43;100.00
70971;BME280;58632;51.718;19.446;2023-09-19T05:26:21;98783.34;;;18.49;100.00
70971;BME280;58632;51.718;19.446;2023-09-19T05:28:46;98781.59;;;18.54;100.00
70971;BME280;58632;51.718;19.446;2023-09-19T05:31:13;98778.31;;;18.61;100.00
70971;BME280;58632;51.718;19.446;2023-09-19T05:33:39;98778.45;;;18.64;100.00
70971;BME280;58632;51.718;19.446;2023-09-19T05:36:05;98780.44;;;18.70;100.00
70971;BME280;58632;51.718;19.446;2023-09-19T05:38:30;98778.83;;;18.74;100.00
70971;BME280;58632;51.718;19.446;2023-09-19T05:40:56;98781.22;;;18.77;100.00
70971;BME280;58632;51.718;19.446;2023-09-19T05:43:21;98787.48;;;18.78;100.00
70971;BME280;58632;51.718;19.446;2023-09-19T05:45:47;98786.61;;;18.80;100.00
70971;BME280;58632;51.718;19.446;2023-09-19T05:48:13;98787.09;;;18.79;100.00
70971;BME280;58632;51.718;19.446;2023-09-19T05:50:39;98800.93;;;18.82;100.00
70971;BME280;58632;51.718;19.446;2023-09-19T05:53:05;98810.99;;;18.82;100.00
70971;BME280;58632;51.718;19.446;2023-09-19T05:55:31;98809.89;;;18.77;100.00
70971;BME280;58632;51.718;19.446;2023-09-19T05:57:56;98802.45;;;18.65;100.00
70971;BME280;58632;51.718;19.446;2023-09-19T06:00:22;98808.19;;;18.55;100.00
70971;BME280;58632;51.718;19.446;2023-09-19T06:02:51;98815.17;;;18.48;100.00
70971;BME280;58632;51.718;19.446;2023-09-19T06:05:17;98818.91;;;18.42;100.00
70971;BME280;58632;51.718;19.446;2023-09-19T06:07:43;98819.05;;;18.43;100.00
70971;BME280;58632;51.718;19.446;2023-09-19T06:10:08;98820.80;;;18.47;100.00
70971;BME280;58632;51.718;19.446;2023-09-19T06:12:41;98823.73;;;18.49;100.00
70971;BME280;58632;51.718;19.446;2023-09-19T06:15:10;98833.86;;;18.50;100.00
70971;BME280;58632;51.718;19.446;2023-09-19T06:17:52;98835.36;;;18.53;100.00
70971;BME280;58632;51.718;19.446;2023-09-19T06:20:20;98838.38;;;18.55;100.00
70971;BME280;58632;51.718;19.446;2023-09-19T06:22:47;98830.99;;;18.60;100.00
70971;BME280;58632;51.718;19.446;2023-09-19T06:25:14;98823.06;;;18.64;100.00
70971;BME280;58632;51.718;19.446;2023-09-19T06:30:12;98819.55;;;18.77;100.00
70971;BME280;58632;51.718;19.446;2023-09-19T06:32:39;98820.05;;;18.82;100.00
70971;BME280;58632;51.718;19.446;2023-09-19T06:35:05;98825.25;;;18.86;100.00
70971;BME280;58632;51.718;19.446;2023-09-19T06:37:33;98831.19;;;18.91;100.00
70971;BME280;58632;51.718;19.446;2023-09-19T06:40:04;98838.46;;;18.97;100.00
70971;BME280;58632;51.718;19.446;2023-09-19T06:42:30;98841.93;;;19.00;100.00
70971;BME280;58632;51.718;19.446;2023-09-19T06:44:56;98839.39;;;19.02;100.00
70971;BME280;58632;51.718;19.446;2023-09-19T06:47:21;98833.74;;;19.06;100.00
70971;BME280;58632;51.718;19.446;2023-09-19T06:49:47;98840.23;;;19.08;100.00
70971;BME280;58632;51.718;19.446;2023-09-19T06:52:17;98842.52;;;19.11;100.00
70971;BME280;58632;51.718;19.446;2023-09-19T06:54:44;98844.33;;;19.15;100.00
70971;BME280;58632;51.718;19.446;2023-09-19T06:57:10;98848.46;;;19.14;100.00
70971;BME280;58632;51.718;19.446;2023-09-19T06:59:35;98859.16;;;19.13;100.00
70971;BME280;58632;51.718;19.446;2023-09-19T07:02:02;98866.06;;;19.11;100.00
70971;BME280;58632;51.718;19.446;2023-09-19T07:04:27;98869.90;;;19.04;100.00
70971;BME280;58632;51.718;19.446;2023-09-19T07:06:53;98873.22;;;19.07;100.00
70971;BME280;58632;51.718;19.446;2023-09-19T07:09:18;98876.77;;;19.15;100.00
70971;BME280;58632;51.718;19.446;2023-09-19T07:11:47;98879.42;;;19.20;100.00
70971;BME280;58632;51.718;19.446;2023-09-19T07:14:16;98879.56;;;19.31;100.00
70971;BME280;58632;51.718;19.446;2023-09-19T07:16:41;98881.31;;;19.44;100.00
70971;BME280;58632;51.718;19.446;2023-09-19T07:19:09;98890.72;;;19.53;100.00
70971;BME280;58632;51.718;19.446;2023-09-19T07:21:40;98893.20;;;19.65;100.00
70971;BME280;58632;51.718;19.446;2023-09-19T07:24:05;98896.59;;;19.75;100.00
70971;BME280;58632;51.718;19.446;2023-09-19T07:26:33;98901.17;;;19.79;100.00
70971;BME280;58632;51.718;19.446;2023-09-19T07:28:59;98900.99;;;19.81;100.00
70971;BME280;58632;51.718;19.446;2023-09-19T07:31:25;98909.55;;;19.84;100.00
70971;BME280;58632;51.718;19.446;2023-09-19T07:33:52;98909.77;;;19.87;100.00
70971;BME280;58632;51.718;19.446;2023-09-19T07:36:18;98913.65;;;19.88;100.00
70971;BME280;58632;51.718;19.446;2023-09-19T07:38:43;98915.64;;;19.90;100.00
70971;BME280;58632;51.718;19.446;2023-09-19T07:41:09;98916.93;;;19.98;100.00
70971;BME280;58632;51.718;19.446;2023-09-19T07:43:35;98915.27;;;20.09;100.00
70971;BME280;58632;51.718;19.446;2023-09-19T07:46:06;98918.20;;;20.21;100.00
70971;BME280;58632;51.718;19.446;2023-09-19T07:48:33;98924.79;;;20.33;100.00
70971;BME280;58632;51.718;19.446;2023-09-19T07:51:05;98924.29;;;20.46;100.00
70971;BME280;58632;51.718;19.446;2023-09-19T07:53:31;98919.19;;;20.62;100.00
70971;BME280;58632;51.718;19.446;2023-09-19T07:56:06;98919.44;;;20.77;100.00
70971;BME280;58632;51.718;19.446;2023-09-19T07:58:33;98926.33;;;20.88;100.00
70971;BME280;58632;51.718;19.446;2023-09-19T08:01:04;98925.98;;;20.91;100.00
70971;BME280;58632;51.718;19.446;2023-09-19T08:03:29;98925.27;;;20.83;100.00
70971;BME280;58632;51.718;19.446;2023-09-19T08:05:56;98923.98;;;20.76;100.00
70971;BME280;58632;51.718;19.446;2023-09-19T08:08:23;98921.96;;;20.78;100.00
70971;BME280;58632;51.718;19.446;2023-09-19T08:10:52;98921.61;;;20.91;100.00
70971;BME280;58632;51.718;19.446;2023-09-19T08:13:18;98924.23;;;20.99;100.00
70971;BME280;58632;51.718;19.446;2023-09-19T08:15:43;98930.65;;;21.01;100.00
70971;BME280;58632;51.718;19.446;2023-09-19T08:18:09;98932.88;;;21.09;100.00
70971;BME280;58632;51.718;19.446;2023-09-19T08:20:37;98931.67;;;21.24;100.00
70971;BME280;58632;51.718;19.446;2023-09-19T08:23:03;98932.83;;;21.36;100.00
70971;BME280;58632;51.718;19.446;2023-09-19T08:25:28;98931.32;;;21.51;100.00
70971;BME280;58632;51.718;19.446;2023-09-19T08:27:54;98928.08;;;21.62;100.00
70971;BME280;58632;51.718;19.446;2023-09-19T08:30:23;98934.51;;;21.68;100.00
70971;BME280;58632;51.718;19.446;2023-09-19T08:32:51;98939.05;;;21.76;100.00
70971;BME280;58632;51.718;19.446;2023-09-19T08:35:23;98941.25;;;21.90;100.00
70971;BME280;58632;51.718;19.446;2023-09-19T08:37:48;98937.63;;;22.04;100.00
70971;BME280;58632;51.718;19.446;2023-09-19T08:40:14;98939.86;;;22.21;100.00
70971;BME280;58632;51.718;19.446;2023-09-19T08:45:14;98924.61;;;22.44;100.00
70971;BME280;58632;51.718;19.446;2023-09-19T08:47:41;98918.93;;;22.55;100.00
70971;BME280;58632;51.718;19.446;2023-09-19T08:50:11;98917.48;;;22.66;100.00
70971;BME280;58632;51.718;19.446;2023-09-19T08:52:43;98916.73;;;22.81;100.00
70971;BME280;58632;51.718;19.446;2023-09-19T08:55:12;98914.77;;;22.98;100.00
70971;BME280;58632;51.718;19.446;2023-09-19T08:57:38;98918.46;;;23.14;100.00
70971;BME280;58632;51.718;19.446;2023-09-19T09:00:08;98913.90;;;23.32;100.00
70971;BME280;58632;51.718;19.446;2023-09-19T09:02:39;98920.60;;;23.55;100.00
70971;BME280;58632;51.718;19.446;2023-09-19T09:05:07;98917.46;;;23.68;100.00
70971;BME280;58632;51.718;19.446;2023-09-19T09:07:35;98914.69;;;23.67;100.00
70971;BME280;58632;51.718;19.446;2023-09-19T09:10:02;98918.70;;;23.75;100.00
70971;BME280;58632;51.718;19.446;2023-09-19T09:12:27;98916.83;;;23.77;100.00
70971;BME280;58632;51.718;19.446;2023-09-19T09:14:54;98916.67;;;23.77;100.00
70971;BME280;58632;51.718;19.446;2023-09-19T09:17:19;98917.09;;;23.76;100.00
70971;BME280;58632;51.718;19.446;2023-09-19T09:19:47;98919.78;;;23.72;100.00
70971;BME280;58632;51.718;19.446;2023-09-19T09:22:13;98923.82;;;23.70;100.00
70971;BME280;58632;51.718;19.446;2023-09-19T09:24:54;98924.91;;;23.59;100.00
70971;BME280;58632;51.718;19.446;2023-09-19T09:27:23;98921.88;;;23.39;100.00
70971;BME280;58632;51.718;19.446;2023-09-19T09:29:51;98922.77;;;23.31;100.00
70971;BME280;58632;51.718;19.446;2023-09-19T09:32:18;98920.37;;;23.35;100.00
70971;BME280;58632;51.718;19.446;2023-09-19T09:34:45;98924.02;;;23.52;100.00
70971;BME280;58632;51.718;19.446;2023-09-19T09:37:14;98928.77;;;23.54;100.00
70971;BME280;58632;51.718;19.446;2023-09-19T09:39:40;98927.79;;;23.67;100.00
70971;BME280;58632;51.718;19.446;2023-09-19T09:42:32;98928.16;;;23.91;100.00
70971;BME280;58632;51.718;19.446;2023-09-19T09:47:54;98937.39;;;24.04;100.00
70971;BME280;58632;51.718;19.446;2023-09-19T09:50:25;98943.27;;;24.16;100.00
70971;BME280;58632;51.718;19.446;2023-09-19T09:52:57;98946.67;;;24.35;100.00
70971;BME280;58632;51.718;19.446;2023-09-19T09:58:16;98945.52;;;24.47;100.00
70971;BME280;58632;51.718;19.446;2023-09-19T10:00:52;98954.08;;;24.61;100.00
70971;BME280;58632;51.718;19.446;2023-09-19T10:03:35;98955.77;;;24.76;100.00
70971;BME280;58632;51.718;19.446;2023-09-19T10:06:05;98952.58;;;24.85;100.00
70971;BME280;58632;51.718;19.446;2023-09-19T10:09:00;98955.77;;;24.95;100.00
70971;BME280;58632;51.718;19.446;2023-09-19T10:11:45;98960.86;;;25.02;100.00
70971;BME280;58632;51.718;19.446;2023-09-19T10:14:12;98963.89;;;24.96;100.00
70971;BME280;58632;51.718;19.446;2023-09-19T10:16:41;98969.07;;;24.81;100.00
70971;BME280;58632;51.718;19.446;2023-09-19T10:19:10;98974.23;;;24.66;100.00
70971;BME280;58632;51.718;19.446;2023-09-19T10:21:39;98978.97;;;24.69;100.00
70971;BME280;58632;51.718;19.446;2023-09-19T10:24:05;98982.55;;;24.70;100.00
70971;BME280;58632;51.718;19.446;2023-09-19T10:26:36;98984.62;;;24.61;100.00
70971;BME280;58632;51.718;19.446;2023-09-19T10:29:01;98988.70;;;24.55;100.00
70971;BME280;58632;51.718;19.446;2023-09-19T10:31:29;98994.02;;;24.45;100.00
70971;BME280;58632;51.718;19.446;2023-09-19T10:33:55;98999.46;;;24.43;100.00
70971;BME280;58632;51.718;19.446;2023-09-19T10:36:22;99000.11;;;24.32;100.00
70971;BME280;58632;51.718;19.446;2023-09-19T10:38:51;98999.44;;;24.13;100.00
70971;BME280;58632;51.718;19.446;2023-09-19T10:41:20;98998.32;;;24.09;100.00
70971;BME280;58632;51.718;19.446;2023-09-19T10:43:47;99005.11;;;23.98;100.00
70971;BME280;58632;51.718;19.446;2023-09-19T10:46:13;99009.77;;;23.81;100.00
70971;BME280;58632;51.718;19.446;2023-09-19T10:48:39;99013.12;;;23.78;100.00
70971;BME280;58632;51.718;19.446;2023-09-19T10:51:09;99011.95;;;23.88;100.00
70971;BME280;58632;51.718;19.446;2023-09-19T10:53:52;99009.25;;;24.06;100.00
70971;BME280;58632;51.718;19.446;2023-09-19T10:56:24;99011.86;;;24.25;100.00
70971;BME280;58632;51.718;19.446;2023-09-19T10:59:05;99010.96;;;24.26;100.00
70971;BME280;58632;51.718;19.446;2023-09-19T11:01:43;99010.84;;;24.18;100.00
70971;BME280;58632;51.718;19.446;2023-09-19T11:04:28;99015.46;;;24.07;100.00
70971;BME280;58632;51.718;19.446;2023-09-19T11:07:07;99020.58;;;23.99;100.00
70971;BME280;58632;51.718;19.446;2023-09-19T11:09:51;99017.62;;;23.92;100.00
70971;BME280;58632;51.718;19.446;2023-09-19T11:18:03;99025.02;;;23.47;100.00
70971;BME280;58632;51.718;19.446;2023-09-19T11:20:54;99030.94;;;23.16;100.00
70971;BME280;58632;51.718;19.446;2023-09-19T11:23:35;99031.60;;;22.94;100.00
70971;BME280;58632;51.718;19.446;2023-09-19T11:26:02;99032.27;;;22.72;100.00
70971;BME280;58632;51.718;19.446;2023-09-19T11:28:28;99029.30;;;22.53;100.00
70971;BME280;58632;51.718;19.446;2023-09-19T11:30:54;99037.04;;;22.34;100.00
70971;BME280;58632;51.718;19.446;2023-09-19T11:43:51;99037.86;;;22.45;100.00
70971;BME280;58632;51.718;19.446;2023-09-19T11:46:17;99034.84;;;22.54;100.00
70971;BME280;58632;51.718;19.446;2023-09-19T11:48:47;99037.30;;;22.72;100.00
70971;BME280;58632;51.718;19.446;2023-09-19T11:51:14;99038.72;;;22.86;100.00
70971;BME280;58632;51.718;19.446;2023-09-19T11:53:47;99041.16;;;22.99;100.00
70971;BME280;58632;51.718;19.446;2023-09-19T11:56:17;99036.45;;;23.10;100.00
70971;BME280;58632;51.718;19.446;2023-09-19T11:58:43;99037.90;;;23.19;100.00
70971;BME280;58632;51.718;19.446;2023-09-19T12:01:09;99038.85;;;23.24;100.00
70971;BME280;58632;51.718;19.446;2023-09-19T12:03:46;99037.23;;;23.29;100.00
70971;BME280;58632;51.718;19.446;2023-09-19T12:06:15;99039.06;;;23.39;100.00
70971;BME280;58632;51.718;19.446;2023-09-19T12:08:42;99040.04;;;23.42;100.00
70971;BME280;58632;51.718;19.446;2023-09-19T12:11:12;99040.77;;;23.37;100.00
70971;BME280;58632;51.718;19.446;2023-09-19T12:13:44;99043.95;;;23.33;100.00
70971;BME280;58632;51.718;19.446;2023-09-19T12:16:16;99046.66;;;23.25;100.00
70971;BME280;58632;51.718;19.446;2023-09-19T12:18:42;99046.51;;;23.14;100.00
70971;BME280;58632;51.718;19.446;2023-09-19T12:21:21;99053.23;;;22.98;100.00
70971;BME280;58632;51.718;19.446;2023-09-19T12:24:03;99050.60;;;22.82;100.00
70971;BME280;58632;51.718;19.446;2023-09-19T12:26:40;99051.65;;;22.71;100.00
70971;BME280;58632;51.718;19.446;2023-09-19T12:29:15;99054.17;;;22.68;100.00
70971;BME280;58632;51.718;19.446;2023-09-19T12:31:52;99051.78;;;22.63;100.00
70971;BME280;58632;51.718;19.446;2023-09-19T12:34:28;99055.81;;;22.54;100.00
70971;BME280;58632;51.718;19.446;2023-09-19T12:37:13;99057.27;;;22.41;100.00
70971;BME280;58632;51.718;19.446;2023-09-19T12:40:05;99061.13;;;22.32;100.00
70971;BME280;58632;51.718;19.446;2023-09-19T12:42:50;99065.37;;;22.31;100.00
70971;BME280;58632;51.718;19.446;2023-09-19T12:45:17;99071.04;;;22.36;100.00
70971;BME280;58632;51.718;19.446;2023-09-19T12:50:27;99067.41;;;22.40;100.00
70971;BME280;58632;51.718;19.446;2023-09-19T12:52:55;99068.89;;;22.53;100.00
70971;BME280;58632;51.718;19.446;2023-09-19T12:57:58;99072.73;;;22.95;100.00
70971;BME280;58632;51.718;19.446;2023-09-19T13:00:33;99072.10;;;23.20;100.00
70971;BME280;58632;51.718;19.446;2023-09-19T13:03:10;99069.40;;;23.33;100.00
70971;BME280;58632;51.718;19.446;2023-09-19T13:05:53;99074.08;;;23.53;100.00
70971;BME280;58632;51.718;19.446;2023-09-19T13:08:21;99073.85;;;23.65;100.00
70971;BME280;58632;51.718;19.446;2023-09-19T13:11:02;99073.09;;;23.78;100.00
70971;BME280;58632;51.718;19.446;2023-09-19T13:13:30;99076.73;;;23.95;100.00
70971;BME280;58632;51.718;19.446;2023-09-19T13:15:56;99077.05;;;24.12;100.00
70971;BME280;58632;51.718;19.446;2023-09-19T13:18:23;99079.48;;;24.25;100.00
70971;BME280;58632;51.718;19.446;2023-09-19T13:21:08;99076.94;;;24.33;99.30
70971;BME280;58632;51.718;19.446;2023-09-19T13:23:38;99072.98;;;24.38;99.16
70971;BME280;58632;51.718;19.446;2023-09-19T13:26:03;99072.80;;;24.39;97.23
70971;BME280;58632;51.718;19.446;2023-09-19T13:28:31;99070.97;;;24.35;96.04
70971;BME280;58632;51.718;19.446;2023-09-19T13:30:56;99073.00;;;24.30;94.47
70971;BME280;58632;51.718;19.446;2023-09-19T13:33:22;99079.61;;;24.23;92.36
70971;BME280;58632;51.718;19.446;2023-09-19T13:35:47;99079.83;;;24.20;93.37